Mechanicsburg, Ohio
Current Conditions -  °F | °C
As of 2:55 PM on Tuesday 21 Oct 2014 (Local Time) from KUYF Reporting Station
Light Rain Light Rain  
Wind Chill: 43°   Ceiling: 1800
Heat Index: 48°   Visibility: 10mi
Dew Point: 45°   Wind: 12mph
Humidity: 87%   Direction: 330°NNW
Pressure: 30.02"   Gusts: 18mph
Location:  40.07°N, 83.56°W
Report Text: KUYF 211855Z AUTO 33010G16KT 10SM -RA BKN018 OVC026 09/07 A3002 RMK AO2
Loading
Personal Weather Stations






























Interactive Weather Map
Tropical Storm Tracking
New forecast layout! Learn more

10-Day Weather Forecast

Advertisements
Track Severe Weather on mobile